createdAt,value
2022-10-19T00:01:31.452Z,102981.91
2022-10-19T00:03:58.869Z,102983.84
2022-10-19T00:06:31.666Z,102982.97
2022-10-19T00:09:01.924Z,102983.09
2022-10-19T00:11:29.420Z,102977.88
2022-10-19T00:13:57.102Z,102972.56
2022-10-19T00:16:25.413Z,102966.47
2022-10-19T00:18:51.862Z,102968.31
2022-10-19T00:21:19.349Z,102967.53
2022-10-19T00:23:46.132Z,102973.09
2022-10-19T00:26:13.388Z,102957.78
2022-10-19T00:28:40.064Z,102955.94
2022-10-19T00:31:09.745Z,102964.09
2022-10-19T00:33:36.647Z,102970.59
2022-10-19T00:36:03.974Z,102966.38
2022-10-19T00:38:30.772Z,102968.31
2022-10-19T00:40:57.292Z,102972.97
2022-10-19T00:43:25.975Z,102973.84
2022-10-19T00:45:53.080Z,102964.72
2022-10-19T00:48:25.734Z,102971.13
2022-10-19T00:50:54.872Z,102980.25
2022-10-19T00:53:21.481Z,102985.66
2022-10-19T00:55:48.055Z,102977.75
2022-10-19T00:58:14.616Z,102973.41
2022-10-19T01:00:41.317Z,102980.56
2022-10-19T01:03:08.574Z,102979.72
2022-10-19T01:05:35.261Z,102979.72
2022-10-19T01:08:02.080Z,102968.09
2022-10-19T01:13:42.760Z,102972.22
2022-10-19T01:16:27.935Z,102964.28
2022-10-19T01:19:00.564Z,102972.53
2022-10-19T01:21:37.155Z,102961.00
2022-10-19T01:24:40.553Z,102958.53
2022-10-19T01:27:22.276Z,102965.91
2022-10-19T01:30:00.384Z,102962.22
2022-10-19T01:32:41.068Z,102968.59
2022-10-19T01:35:11.731Z,102964.25
2022-10-19T01:37:45.397Z,102962.53
2022-10-19T01:40:31.100Z,102953.81
2022-10-19T01:42:57.623Z,102954.22
2022-10-19T01:45:33.184Z,102946.97
2022-10-19T01:48:03.307Z,102942.41
2022-10-19T01:50:55.924Z,102949.69
2022-10-19T01:53:24.092Z,102941.75
2022-10-19T01:55:52.259Z,102947.19
2022-10-19T01:58:22.890Z,102941.88
2022-10-19T02:00:51.517Z,102933.94
2022-10-19T02:03:18.483Z,102936.00
2022-10-19T02:05:45.786Z,102934.38
2022-10-19T02:08:15.435Z,102944.34
2022-10-19T02:10:42.926Z,102937.28
2022-10-19T02:13:09.540Z,102933.81
2022-10-19T02:15:38.615Z,102932.06
2022-10-19T02:18:07.127Z,102929.47
2022-10-19T02:20:35.602Z,102923.16
2022-10-19T02:23:07.248Z,102921.53
2022-10-19T02:25:34.550Z,102916.09
2022-10-19T02:28:02.488Z,102918.03
2022-10-19T02:30:29.029Z,102923.34
2022-10-19T02:32:55.521Z,102916.09
2022-10-19T02:35:22.960Z,102916.31
2022-10-19T02:37:49.567Z,102927.28
2022-10-19T02:40:16.375Z,102926.50
2022-10-19T02:42:51.210Z,102933.84
2022-10-19T02:45:31.167Z,102933.97
2022-10-19T02:48:01.238Z,102925.28
2022-10-19T02:50:27.879Z,102915.72
2022-10-19T02:52:54.475Z,102906.81
2022-10-19T02:55:21.121Z,102906.91
2022-10-19T02:57:47.595Z,102911.47
2022-10-19T03:00:14.697Z,102906.81
2022-10-19T03:02:41.266Z,102912.34
2022-10-19T03:05:08.376Z,102904.41
2022-10-19T03:07:35.470Z,102890.38
2022-10-19T03:10:02.339Z,102895.16
2022-10-19T03:12:28.827Z,102894.38
2022-10-19T03:14:55.361Z,102894.50
2022-10-19T03:17:21.893Z,102885.72
2022-10-19T03:19:48.383Z,102886.88
2022-10-19T03:22:14.982Z,102875.25
2022-10-19T03:24:41.529Z,102884.34
2022-10-19T03:27:07.985Z,102889.88
2022-10-19T03:29:34.473Z,102889.97
2022-10-19T03:32:01.085Z,102896.47
2022-10-19T03:34:27.536Z,102891.16
2022-10-19T03:36:54.274Z,102884.00
2022-10-19T03:39:20.726Z,102877.81
2022-10-19T03:41:47.274Z,102873.38
2022-10-19T03:44:13.817Z,102880.63
2022-10-19T03:46:40.527Z,102884.19
2022-10-19T03:49:07.161Z,102890.50
2022-10-19T03:51:34.087Z,102884.19
2022-10-19T03:54:03.126Z,102880.72
2022-10-19T03:56:30.622Z,102877.25
2022-10-19T03:58:58.723Z,102878.97
2022-10-19T04:01:28.577Z,102875.41
2022-10-19T04:03:57.138Z,102872.72
2022-10-19T04:06:26.385Z,102869.03
2022-10-19T04:08:53.070Z,102864.47
2022-10-19T04:11:22.949Z,102866.00
2022-10-19T04:13:50.521Z,102867.75
2022-10-19T04:16:17.671Z,102869.50
2022-10-19T04:18:44.190Z,102864.06
2022-10-19T04:21:20.028Z,102872.97
2022-10-19T04:23:46.533Z,102868.31
2022-10-19T04:26:13.016Z,102871.13
2022-10-19T04:28:39.634Z,102873.94
2022-10-19T04:31:06.830Z,102885.63
2022-10-19T04:33:34.275Z,102894.66
2022-10-19T04:36:02.283Z,102894.84
2022-10-19T04:38:29.225Z,102884.00
2022-10-19T04:40:56.415Z,102893.88
2022-10-19T04:43:23.076Z,102896.59
2022-10-19T04:45:49.567Z,102900.94
2022-10-19T04:48:16.106Z,102896.66
2022-10-19T04:50:42.622Z,102893.28
2022-10-19T04:53:09.073Z,102899.78
2022-10-19T04:55:41.195Z,102889.81
2022-10-19T04:58:08.090Z,102899.03
2022-10-19T05:00:34.881Z,102887.41
2022-10-19T05:03:01.491Z,102888.28
2022-10-19T05:05:28.124Z,102891.84
2022-10-19T05:07:54.596Z,102883.66
2022-10-19T05:10:21.099Z,102874.75
2022-10-19T05:12:47.556Z,102887.31
2022-10-19T05:15:14.132Z,102889.94
2022-10-19T05:17:40.599Z,102886.38
2022-10-19T05:20:07.812Z,102884.81
2022-10-19T05:22:34.385Z,102886.75
2022-10-19T05:25:00.841Z,102877.97
2022-10-19T05:27:27.466Z,102872.53
2022-10-19T05:29:53.933Z,102876.34
2022-10-19T05:32:20.446Z,102865.50
2022-10-19T05:34:46.926Z,102867.50
2022-10-19T05:37:13.575Z,102862.09
2022-10-19T05:39:40.337Z,102860.16
2022-10-19T05:42:06.839Z,102862.00
2022-10-19T05:44:33.332Z,102858.53
2022-10-19T05:47:00.565Z,102862.00
2022-10-19T05:49:27.012Z,102858.41
2022-10-19T05:51:53.853Z,102851.06
2022-10-19T05:54:22.703Z,102850.28
2022-10-19T05:56:51.603Z,102843.06
2022-10-19T05:59:19.664Z,102842.63
2022-10-19T06:01:47.103Z,102835.94
2022-10-19T06:04:15.012Z,102843.75
2022-10-19T06:06:42.750Z,102838.16
2022-10-19T06:09:09.718Z,102841.81
2022-10-19T06:11:39.141Z,102838.91
2022-10-19T06:14:08.458Z,102840.78
2022-10-19T06:16:35.501Z,102829.94
2022-10-19T06:19:02.080Z,102830.91
2022-10-19T06:21:30.152Z,102837.19
2022-10-19T06:23:58.830Z,102837.28
2022-10-19T06:26:26.517Z,102851.69
2022-10-19T06:28:56.040Z,102851.63
2022-10-19T06:31:22.530Z,102864.28
2022-10-19T06:33:49.762Z,102857.56
2022-10-19T06:36:21.822Z,102855.44
2022-10-19T06:38:48.924Z,102849.91
2022-10-19T06:41:15.698Z,102846.88
2022-10-19T06:43:43.509Z,102855.59
2022-10-19T06:46:20.716Z,102854.19
2022-10-19T06:48:52.109Z,102854.66
2022-10-19T06:51:18.705Z,102848.06
2022-10-19T06:53:45.220Z,102848.59
2022-10-19T06:56:11.756Z,102849.94
2022-10-19T06:58:38.897Z,102836.59
2022-10-19T07:01:09.434Z,102841.28
2022-10-19T07:03:36.597Z,102837.50
2022-10-19T07:06:06.147Z,102833.78
2022-10-19T07:08:32.974Z,102847.38
2022-10-19T07:11:02.691Z,102839.31
2022-10-19T07:13:29.885Z,102841.91
2022-10-19T07:16:02.742Z,102837.28
2022-10-19T07:18:29.414Z,102835.19
2022-10-19T07:21:01.249Z,102844.34
2022-10-19T07:23:29.431Z,102847.34
2022-10-19T07:26:01.113Z,102833.28
2022-10-19T07:28:29.501Z,102831.38
2022-10-19T07:30:56.141Z,102829.09
2022-10-19T07:33:22.684Z,102823.53
2022-10-19T07:35:49.395Z,102821.63
2022-10-19T07:38:15.934Z,102820.97
2022-10-19T07:40:44.914Z,102813.41
2022-10-19T07:43:13.839Z,102788.69
2022-10-19T07:45:40.372Z,102774.78
2022-10-19T07:48:06.916Z,102765.91
2022-10-19T07:50:33.438Z,102752.13
2022-10-19T07:53:00.004Z,102737.91
2022-10-19T07:55:26.527Z,102736.41
2022-10-19T07:57:53.037Z,102734.13
2022-10-19T08:00:19.642Z,102728.97
2022-10-19T08:03:05.106Z,102725.69
2022-10-19T08:05:33.547Z,102719.47
2022-10-19T08:08:00.085Z,102719.38
2022-10-19T08:10:26.659Z,102710.19
2022-10-19T08:12:53.256Z,102704.84
2022-10-19T08:15:19.739Z,102701.19
2022-10-19T08:17:46.392Z,102698.97
2022-10-19T08:20:12.960Z,102706.25
2022-10-19T08:22:39.701Z,102712.69
2022-10-19T08:25:06.368Z,102717.91
2022-10-19T08:27:33.004Z,102716.84
2022-10-19T08:29:59.588Z,102723.31
2022-10-19T08:32:26.070Z,102731.09
2022-10-19T08:34:52.533Z,102723.09
2022-10-19T08:37:26.440Z,102731.59
2022-10-19T08:40:06.395Z,102725.41
2022-10-19T08:42:47.790Z,102731.75
2022-10-19T08:45:32.692Z,102729.03
2022-10-19T08:48:02.039Z,102721.28
2022-10-19T08:50:39.274Z,102724.59
2022-10-19T08:53:10.441Z,102722.38
2022-10-19T08:56:07.693Z,102710.19
2022-10-19T08:58:51.301Z,102718.06
2022-10-19T09:01:21.105Z,102713.81
2022-10-19T09:03:55.755Z,102724.50
2022-10-19T09:06:41.885Z,102728.97
2022-10-19T09:09:12.451Z,102736.28
2022-10-19T09:11:42.862Z,102749.91
2022-10-19T09:14:26.098Z,102742.03
2022-10-19T09:16:52.764Z,102738.13
2022-10-19T09:19:25.945Z,102739.69
2022-10-19T09:21:58.447Z,102727.38
2022-10-19T09:27:47.620Z,102706.44
2022-10-19T09:30:20.113Z,102701.09
2022-10-19T09:32:47.979Z,102695.59
2022-10-19T09:35:14.425Z,102699.50
2022-10-19T09:37:45.215Z,102694.31
2022-10-19T09:40:18.391Z,102688.22
2022-10-19T09:42:44.929Z,102671.50
2022-10-19T09:45:16.914Z,102672.53
2022-10-19T09:47:46.430Z,102670.28
2022-10-19T09:50:20.320Z,102668.22
2022-10-19T09:52:51.818Z,102667.53
2022-10-19T09:55:40.650Z,102659.66
2022-10-19T09:58:12.986Z,102642.13
2022-10-19T10:00:48.001Z,102645.63
2022-10-19T10:03:50.087Z,102647.53
2022-10-19T10:06:18.000Z,102649.00
2022-10-19T10:08:57.973Z,102636.72
2022-10-19T10:11:28.347Z,102638.69
2022-10-19T10:13:55.818Z,102624.16
2022-10-19T10:16:24.313Z,102630.44
2022-10-19T10:18:55.272Z,102619.91
2022-10-19T10:21:27.266Z,102620.06
2022-10-19T10:23:59.985Z,102606.53
2022-10-19T10:26:26.899Z,102617.13
2022-10-19T10:28:55.626Z,102607.03
2022-10-19T10:31:28.112Z,102595.81
2022-10-19T10:34:02.911Z,102589.13
2022-10-19T10:36:37.694Z,102604.91
2022-10-19T10:39:08.486Z,102599.31
2022-10-19T10:41:38.612Z,102588.28
2022-10-19T10:44:18.879Z,102594.97
2022-10-19T10:46:56.763Z,102591.06
2022-10-19T10:49:28.604Z,102592.81
2022-10-19T10:52:01.032Z,102594.06
2022-10-19T10:54:31.181Z,102589.41
2022-10-19T10:57:06.831Z,102587.50
2022-10-19T10:59:45.461Z,102603.44
2022-10-19T11:02:18.871Z,102591.41
2022-10-19T11:04:52.347Z,102593.13
2022-10-19T11:07:23.834Z,102587.44
2022-10-19T11:09:57.816Z,102576.56
2022-10-19T11:15:58.787Z,102573.94
2022-10-19T11:18:37.995Z,102570.22
2022-10-19T11:21:09.910Z,102567.75
2022-10-19T11:23:54.329Z,102554.28
2022-10-19T11:29:42.324Z,102541.22
2022-10-19T11:32:18.927Z,102543.59
2022-10-19T11:35:00.681Z,102542.91
2022-10-19T11:37:50.118Z,102528.31
2022-10-19T11:41:18.360Z,102520.91
2022-10-19T11:44:15.854Z,102523.34
2022-10-19T11:46:42.262Z,102517.97
2022-10-19T11:49:31.472Z,102510.25
2022-10-19T11:51:59.755Z,102500.25
2022-10-19T11:54:38.324Z,102491.53
2022-10-19T11:57:11.349Z,102490.72
2022-10-19T11:59:38.184Z,102489.44
2022-10-19T12:02:23.348Z,102489.00
2022-10-19T12:04:56.886Z,102487.56
2022-10-19T12:08:01.724Z,102487.72
2022-10-19T12:10:43.316Z,102476.63
2022-10-19T12:13:13.231Z,102474.28
2022-10-19T12:15:47.982Z,102457.78
2022-10-19T12:18:20.656Z,102459.16
2022-10-19T12:20:50.005Z,102455.03
2022-10-19T12:23:33.948Z,102449.25
2022-10-19T12:26:02.986Z,102428.25
2022-10-19T12:28:34.808Z,102443.25
2022-10-19T12:31:02.658Z,102429.66
2022-10-19T12:33:49.286Z,102419.69
2022-10-19T12:36:24.812Z,102422.19
2022-10-19T12:39:09.554Z,102426.75
2022-10-19T12:41:35.962Z,102417.13
2022-10-19T12:44:39.616Z,102417.97
2022-10-19T12:47:12.419Z,102398.88
2022-10-19T12:49:50.613Z,102406.81
2022-10-19T12:52:37.692Z,102409.03
2022-10-19T12:55:13.459Z,102408.69
2022-10-19T12:57:40.448Z,102402.28
2022-10-19T13:00:23.380Z,102399.63
2022-10-19T13:02:58.484Z,102393.91
2022-10-19T13:05:25.176Z,102398.00
2022-10-19T13:10:25.146Z,102371.59
2022-10-19T13:12:52.532Z,102372.34
2022-10-19T13:15:34.499Z,102369.97
2022-10-19T13:18:02.465Z,102356.44
2022-10-19T13:20:29.203Z,102365.19
2022-10-19T13:23:03.473Z,102358.25
2022-10-19T13:25:40.238Z,102356.25
2022-10-19T13:28:06.760Z,102350.03
2022-10-19T13:30:39.117Z,102349.09
2022-10-19T13:33:30.260Z,102350.72
2022-10-19T13:35:59.756Z,102339.22
2022-10-19T13:38:26.440Z,102344.13
2022-10-19T13:40:53.037Z,102338.81
2022-10-19T13:43:21.104Z,102337.00
2022-10-19T13:46:19.406Z,102340.63
2022-10-19T13:49:10.569Z,102340.44
2022-10-19T13:52:13.922Z,102338.34
2022-10-19T13:54:51.522Z,102334.50
2022-10-19T13:58:02.826Z,102319.56
2022-10-19T14:00:45.294Z,102323.47
2022-10-19T14:03:22.494Z,102329.81
2022-10-19T14:06:00.966Z,102320.06
2022-10-19T14:08:43.228Z,102321.41
2022-10-19T14:11:19.158Z,102309.31
2022-10-19T14:13:46.962Z,102307.00
2022-10-19T14:16:22.332Z,102298.09
2022-10-19T14:18:55.775Z,102290.84
2022-10-19T14:21:33.837Z,102283.00
2022-10-19T14:24:00.574Z,102291.69
2022-10-19T14:26:32.107Z,102285.84
2022-10-19T14:28:59.675Z,102282.97
2022-10-19T14:31:33.413Z,102280.63
2022-10-19T14:34:02.746Z,102275.53
2022-10-19T14:36:35.714Z,102277.09
2022-10-19T14:39:02.502Z,102263.16
2022-10-19T14:41:30.447Z,102265.75
2022-10-19T14:43:57.670Z,102264.16
2022-10-19T14:46:31.198Z,102258.50
2022-10-19T14:49:02.569Z,102258.78
2022-10-19T14:51:41.265Z,102259.38
2022-10-19T14:54:13.591Z,102261.34
2022-10-19T14:56:53.843Z,102248.78
2022-10-19T14:59:27.497Z,102250.88
2022-10-19T15:01:56.558Z,102244.22
2022-10-19T15:04:26.018Z,102251.06
2022-10-19T15:06:53.353Z,102242.63
2022-10-19T15:09:37.587Z,102239.56
2022-10-19T15:12:16.111Z,102244.63
2022-10-19T15:14:42.866Z,102237.88
2022-10-19T15:17:25.154Z,102240.59
2022-10-19T15:19:52.008Z,102222.91
2022-10-19T15:22:32.513Z,102225.78
2022-10-19T15:25:08.069Z,102205.56
2022-10-19T15:27:39.554Z,102203.19
2022-10-19T15:30:24.069Z,102200.78
2022-10-19T15:32:54.459Z,102188.13
2022-10-19T15:35:26.348Z,102184.31
2022-10-19T15:38:00.651Z,102187.56
2022-10-19T15:40:34.843Z,102181.19
2022-10-19T15:43:01.639Z,102184.44
2022-10-19T15:45:36.726Z,102170.56
2022-10-19T15:48:24.859Z,102163.91
2022-10-19T15:50:53.081Z,102161.69
2022-10-19T15:53:20.203Z,102158.44
2022-10-19T15:55:46.798Z,102160.63
2022-10-19T15:58:14.148Z,102158.53
2022-10-19T16:00:41.535Z,102145.53
2022-10-19T16:03:09.114Z,102147.38
2022-10-19T16:05:36.498Z,102144.75
2022-10-19T16:08:03.552Z,102149.91
2022-10-19T16:10:30.047Z,102141.13
2022-10-19T16:12:56.518Z,102127.56
2022-10-19T16:15:23.535Z,102120.16
2022-10-19T16:17:53.394Z,102111.13
2022-10-19T16:20:20.048Z,102104.69
2022-10-19T16:22:47.342Z,102101.94
2022-10-19T16:25:14.217Z,102105.47
2022-10-19T16:27:41.186Z,102102.38
2022-10-19T16:30:08.299Z,102092.94
2022-10-19T16:32:34.903Z,102100.50
2022-10-19T16:35:01.429Z,102099.38
2022-10-19T16:37:27.933Z,102105.81
2022-10-19T16:39:54.683Z,102102.38
2022-10-19T16:42:21.829Z,102090.97
2022-10-19T16:44:48.938Z,102089.81
2022-10-19T16:47:16.990Z,102089.13
2022-10-19T16:49:43.493Z,102084.13
2022-10-19T16:52:14.007Z,102085.16
2022-10-19T16:54:40.670Z,102084.63
2022-10-19T16:57:09.799Z,102086.13
2022-10-19T16:59:36.646Z,102084.81
2022-10-19T17:02:03.148Z,102083.34
2022-10-19T17:04:29.628Z,102080.91
2022-10-19T17:06:57.126Z,102078.19
2022-10-19T17:12:12.465Z,102086.63
2022-10-19T17:14:40.722Z,102078.28
2022-10-19T17:17:07.926Z,102083.59
2022-10-19T17:19:34.389Z,102101.31
2022-10-19T17:22:02.237Z,102093.44
2022-10-19T17:24:29.282Z,102105.38
2022-10-19T17:26:55.945Z,102099.84
2022-10-19T17:29:22.927Z,102094.22
2022-10-19T17:31:50.097Z,102087.72
2022-10-19T17:34:16.746Z,102078.84
2022-10-19T17:36:46.844Z,102086.34
2022-10-19T17:39:17.722Z,102088.91
2022-10-19T17:41:48.952Z,102096.88
2022-10-19T17:44:16.440Z,102099.78
2022-10-19T17:46:43.116Z,102103.13
2022-10-19T17:49:10.243Z,102100.69
2022-10-19T17:51:37.950Z,102090.09
2022-10-19T17:54:14.698Z,102076.44
2022-10-19T17:56:41.940Z,102075.44
2022-10-19T17:59:09.310Z,102075.75
2022-10-19T18:01:37.030Z,102082.03
2022-10-19T18:04:04.167Z,102075.94
2022-10-19T18:06:32.511Z,102072.50
2022-10-19T18:09:00.326Z,102070.63
2022-10-19T18:11:28.727Z,102075.69
2022-10-19T18:13:57.671Z,102070.38
2022-10-19T18:16:35.822Z,102071.00
2022-10-19T18:19:03.724Z,102066.25
2022-10-19T18:21:32.472Z,102058.91
2022-10-19T18:24:00.746Z,102059.84
2022-10-19T18:26:29.278Z,102058.19
2022-10-19T18:28:56.606Z,102050.56
2022-10-19T18:31:25.641Z,102058.66
2022-10-19T18:34:03.485Z,102055.53
2022-10-19T18:36:31.185Z,102057.38
2022-10-19T18:39:00.235Z,102040.47
2022-10-19T18:41:27.450Z,102028.84
2022-10-19T18:43:56.481Z,102025.88
2022-10-19T18:46:24.468Z,102012.38
2022-10-19T18:48:51.266Z,102005.69
2022-10-19T18:51:18.506Z,101998.50
2022-10-19T18:53:45.653Z,101998.81
2022-10-19T18:56:14.566Z,102002.53
2022-10-19T18:58:41.446Z,101995.53
2022-10-19T19:01:17.292Z,101988.81
2022-10-19T19:03:46.859Z,101984.53
2022-10-19T19:06:16.743Z,101984.97
2022-10-19T19:11:21.491Z,101998.50
2022-10-19T19:13:49.945Z,101991.50
2022-10-19T19:16:16.689Z,101993.75
2022-10-19T19:18:43.510Z,101986.16
2022-10-19T19:21:14.996Z,101965.22
2022-10-19T19:23:41.662Z,101961.78
2022-10-19T19:26:09.349Z,101961.53
2022-10-19T19:28:39.157Z,101961.53
2022-10-19T19:31:08.819Z,101956.38
2022-10-19T19:33:35.628Z,101952.72
2022-10-19T19:36:05.537Z,101948.97
2022-10-19T19:38:32.115Z,101943.97
2022-10-19T19:40:58.662Z,101942.09
2022-10-19T19:43:25.198Z,101943.69
2022-10-19T19:46:00.966Z,101935.13
2022-10-19T19:48:29.821Z,101950.59
2022-10-19T19:50:56.536Z,101943.47
2022-10-19T19:53:23.058Z,101944.06
2022-10-19T19:55:49.892Z,101936.03
2022-10-19T19:58:16.610Z,101938.19
2022-10-19T20:00:43.612Z,101937.34
2022-10-19T20:03:12.453Z,101930.16
2022-10-19T20:05:39.967Z,101932.06
2022-10-19T20:08:07.464Z,101922.28
2022-10-19T20:10:38.220Z,101929.16
2022-10-19T20:15:39.441Z,101932.19
2022-10-19T20:18:06.611Z,101930.47
2022-10-19T20:20:33.117Z,101927.03
2022-10-19T20:22:59.580Z,101929.47
2022-10-19T20:25:26.131Z,101928.03
2022-10-19T20:27:52.686Z,101910.81
2022-10-19T20:30:19.215Z,101903.66
2022-10-19T20:32:45.707Z,101904.81
2022-10-19T20:35:12.200Z,101896.53
2022-10-19T20:37:38.784Z,101896.66
2022-10-19T20:40:08.503Z,101891.91
2022-10-19T20:42:35.700Z,101888.66
2022-10-19T20:45:02.539Z,101883.66
2022-10-19T20:47:29.419Z,101881.22
2022-10-19T20:49:55.983Z,101884.94
2022-10-19T20:52:22.601Z,101886.66
2022-10-19T20:54:49.311Z,101879.94
2022-10-19T20:57:15.829Z,101883.38
2022-10-19T20:59:43.856Z,101885.38
2022-10-19T21:02:10.910Z,101880.94
2022-10-19T21:04:37.633Z,101879.78
2022-10-19T21:07:04.985Z,101879.94
2022-10-19T21:09:31.568Z,101877.06
2022-10-19T21:11:58.219Z,101871.63
2022-10-19T21:14:28.589Z,101875.50
2022-10-19T21:16:57.517Z,101867.63
2022-10-19T21:19:25.681Z,101868.78
2022-10-19T21:21:55.471Z,101863.63
2022-10-19T21:24:27.343Z,101867.34
2022-10-19T21:26:54.488Z,101857.47
2022-10-19T21:29:21.388Z,101862.06
2022-10-19T21:31:49.535Z,101852.63
2022-10-19T21:34:19.056Z,101855.34
2022-10-19T21:36:45.749Z,101842.59
2022-10-19T21:39:12.316Z,101848.19
2022-10-19T21:41:38.780Z,101833.56
2022-10-19T21:44:05.502Z,101832.84
2022-10-19T21:46:32.141Z,101833.84
2022-10-19T21:48:58.775Z,101833.00
2022-10-19T21:51:36.912Z,101818.53
2022-10-19T21:54:08.208Z,101815.53
2022-10-19T21:56:35.199Z,101815.81
2022-10-19T21:59:01.699Z,101808.66
2022-10-19T22:01:29.492Z,101811.25
2022-10-19T22:03:57.426Z,101813.81
2022-10-19T22:06:24.860Z,101806.50
2022-10-19T22:08:51.474Z,101805.78
2022-10-19T22:11:18.017Z,101803.78
2022-10-19T22:13:44.610Z,101808.34
2022-10-19T22:16:16.949Z,101814.50
2022-10-19T22:18:43.838Z,101805.63
2022-10-19T22:21:15.969Z,101804.91
2022-10-19T22:23:43.295Z,101807.94
2022-10-19T22:26:17.644Z,101807.25
2022-10-19T22:28:44.918Z,101798.38
2022-10-19T22:31:12.445Z,101794.78
2022-10-19T22:33:39.416Z,101784.88
2022-10-19T22:36:08.393Z,101792.03
2022-10-19T22:38:35.431Z,101781.16
2022-10-19T22:41:58.494Z,101769.88
2022-10-19T22:44:25.054Z,101760.00
2022-10-19T22:46:51.536Z,101761.00
2022-10-19T22:49:18.015Z,101765.56
2022-10-19T22:51:44.495Z,101758.72
2022-10-19T22:54:11.356Z,101744.41
2022-10-19T22:56:37.931Z,101762.75
2022-10-19T22:59:05.416Z,101756.28
2022-10-19T23:01:32.051Z,101758.31
2022-10-19T23:03:59.274Z,101759.19
2022-10-19T23:06:25.778Z,101749.44
2022-10-19T23:08:53.770Z,101751.75
2022-10-19T23:11:20.711Z,101751.88
2022-10-19T23:13:47.346Z,101743.88
2022-10-19T23:16:13.846Z,101739.44
2022-10-19T23:18:41.229Z,101731.44
2022-10-19T23:21:14.602Z,101736.31
2022-10-19T23:23:41.707Z,101735.44
2022-10-19T23:26:13.421Z,101741.06
2022-10-19T23:28:41.074Z,101732.00
2022-10-19T23:31:16.578Z,101725.00
2022-10-19T23:33:43.625Z,101731.28
2022-10-19T23:36:12.208Z,101723.31
2022-10-19T23:38:38.759Z,101719.16
2022-10-19T23:41:05.314Z,101719.03
2022-10-19T23:43:31.905Z,101714.41
2022-10-19T23:45:58.736Z,101705.13
2022-10-19T23:48:25.335Z,101701.69
2022-10-19T23:50:58.032Z,101715.44
2022-10-19T23:53:24.834Z,101708.97
2022-10-19T23:55:51.541Z,101706.13
2022-10-19T23:58:18.059Z,101705.25
